Time;durP1;ratioP1;P1;durP2;ratioP2;P2;SDS_P1;SDS_P2;PMS_P1;PMS_P2;Temp;Humidity;BMP_temperature;BMP_pressure;BME280_temperature;BME280_humidity;BME280_pressure;Samples;Min_cycle;Max_cycle;Signal;HPM_P1;HPM_P2
2021/12/29 00:01:05;;;;;;;48.58;6.50;;;6.80;99.90;;;;;;6133466;23;20122;-86
2021/12/29 00:03:30;;;;;;;48.90;6.00;;;6.80;99.90;;;;;;6156623;23;20558;-86
2021/12/29 00:05:56;;;;;;;36.65;5.30;;;6.80;99.90;;;;;;6157898;23;20069;-86
2021/12/29 00:08:22;;;;;;;34.50;5.00;;;6.80;99.90;;;;;;6132503;23;20343;-86
2021/12/29 00:21:56;;;;;;;15.80;4.03;;;6.80;99.90;;;;;;6075514;23;20098;-86
2021/12/29 00:24:21;;;;;;;24.77;4.68;;;6.80;99.90;;;;;;6157288;23;20403;-86
2021/12/29 00:26:47;;;;;;;25.02;4.30;;;6.80;99.90;;;;;;6159310;23;20021;-86
2021/12/29 00:29:14;;;;;;;44.15;5.45;;;6.80;99.90;;;;;;6159219;23;20036;-86
2021/12/29 00:31:41;;;;;;;49.03;6.60;;;6.80;99.90;;;;;;6135017;23;20024;-86
2021/12/29 00:34:07;;;;;;;61.25;6.30;;;6.80;99.90;;;;;;6133170;23;20017;-85
2021/12/29 00:36:33;;;;;;;66.95;6.55;;;6.80;99.90;;;;;;6158126;23;20096;-85
2021/12/29 00:38:58;;;;;;;40.53;5.82;;;6.80;99.90;;;;;;6156493;23;20106;-85
2021/12/29 00:41:24;;;;;;;52.17;7.10;;;6.80;99.90;;;;;;6133355;23;20325;-85
2021/12/29 00:43:50;;;;;;;32.03;5.22;;;6.80;99.90;;;;;;6157705;23;20076;-86
2021/12/29 00:46:18;;;;;;;38.28;4.63;;;6.80;99.90;;;;;;6133636;23;20013;-86
2021/12/29 00:48:46;;;;;;;37.80;4.72;;;6.80;99.90;;;;;;6133954;23;20028;-86
2021/12/29 00:51:12;;;;;;;39.20;4.75;;;6.80;99.90;;;;;;6158122;23;20020;-86
2021/12/29 00:53:38;;;;;;;42.13;6.03;;;6.80;99.90;;;;;;6132672;23;20017;-85
2021/12/29 00:56:05;;;;;;;33.15;5.35;;;6.80;99.90;;;;;;6130897;23;20023;-86
2021/12/29 00:58:32;;;;;;;37.70;5.57;;;6.80;99.90;;;;;;6133564;23;20017;-86
2021/12/29 01:00:59;;;;;;;33.13;5.13;;;6.80;99.90;;;;;;6133505;23;20019;-86
2021/12/29 01:03:26;;;;;;;33.47;5.63;;;6.80;99.90;;;;;;6132941;23;20089;-86
2021/12/29 01:05:52;;;;;;;29.17;4.78;;;6.80;99.90;;;;;;6133226;23;20100;-86
2021/12/29 01:08:18;;;;;;;31.58;5.28;;;6.90;99.90;;;;;;6156943;23;20021;-86
2021/12/29 01:10:44;;;;;;;50.95;5.70;;;6.90;99.90;;;;;;6155947;23;20351;-85
2021/12/29 01:13:14;;;;;;;47.15;5.32;;;6.90;99.90;;;;;;6132710;23;20013;-85
2021/12/29 01:16:36;;;;;;;37.22;6.18;;;6.90;99.90;;;;;;6131607;23;20426;-86
2021/12/29 01:18:37;;;;;;;47.28;5.63;;;7.00;99.90;;;;;;6153133;23;20079;-86
2021/12/29 01:21:04;;;;;;;32.53;5.93;;;7.00;99.90;;;;;;6157182;23;20048;-86
2021/12/29 01:23:29;;;;;;;30.95;6.57;;;7.10;99.90;;;;;;6156675;23;20040;-86
2021/12/29 01:25:55;;;;;;;34.58;6.90;;;7.20;99.90;;;;;;6131682;23;20021;-86
2021/12/29 01:28:21;;;;;;;29.20;7.30;;;7.20;99.90;;;;;;6157993;23;20017;-85
2021/12/29 01:30:47;;;;;;;38.53;8.13;;;7.30;99.90;;;;;;6157692;23;20126;-86
2021/12/29 01:33:13;;;;;;;34.72;8.85;;;7.40;99.90;;;;;;6133299;23;20451;-86
2021/12/29 01:35:40;;;;;;;31.50;7.68;;;7.40;99.90;;;;;;6133162;23;20023;-85
2021/12/29 01:38:07;;;;;;;33.42;8.63;;;7.50;99.90;;;;;;6134022;23;20066;-85
2021/12/29 01:40:38;;;;;;;29.02;8.50;;;7.60;99.90;;;;;;6156573;23;20324;-85
2021/12/29 01:43:06;;;;;;;29.05;8.40;;;7.60;99.90;;;;;;6133085;23;20023;-85
2021/12/29 01:45:32;;;;;;;27.08;9.45;;;7.60;99.90;;;;;;6156314;23;20013;-86
2021/12/29 01:48:00;;;;;;;33.20;9.30;;;7.60;99.90;;;;;;6157579;23;20024;-86
2021/12/29 01:50:26;;;;;;;26.15;8.50;;;7.60;99.90;;;;;;6132771;23;20021;-85
2021/12/29 01:52:57;;;;;;;26.00;8.38;;;7.60;99.90;;;;;;6132621;23;20028;-86
2021/12/29 01:55:25;;;;;;;27.30;8.80;;;7.60;99.90;;;;;;6156718;23;20021;-86
2021/12/29 01:57:52;;;;;;;24.77;8.57;;;7.50;99.90;;;;;;6158029;23;20100;-86
2021/12/29 02:00:21;;;;;;;25.70;8.85;;;7.60;99.90;;;;;;6156727;23;20067;-85
2021/12/29 02:02:47;;;;;;;28.83;9.98;;;7.50;99.90;;;;;;6134180;23;20396;-85
2021/12/29 02:05:14;;;;;;;26.67;9.48;;;7.50;99.90;;;;;;6131926;23;20028;-86
2021/12/29 02:07:40;;;;;;;23.33;9.50;;;7.50;99.90;;;;;;6132761;23;20017;-86
2021/12/29 02:10:07;;;;;;;26.02;9.13;;;7.50;99.90;;;;;;6131192;23;20321;-85
2021/12/29 02:12:33;;;;;;;26.63;8.07;;;7.50;99.90;;;;;;6157577;23;20021;-86
2021/12/29 02:14:59;;;;;;;27.02;8.52;;;7.50;99.90;;;;;;6132257;23;20510;-86
2021/12/29 02:17:25;;;;;;;22.48;8.30;;;7.50;99.90;;;;;;6157095;23;20013;-85
2021/12/29 02:19:52;;;;;;;23.95;7.55;;;7.50;99.90;;;;;;6156729;23;20020;-85
2021/12/29 02:22:43;;;;;;;21.10;7.20;;;7.50;99.90;;;;;;6158921;23;20013;-86
2021/12/29 02:25:19;;;;;;;24.27;8.23;;;7.50;99.90;;;;;;6155710;23;20458;-85
2021/12/29 02:27:49;;;;;;;24.55;8.18;;;7.50;99.90;;;;;;6159509;23;20013;-85
2021/12/29 02:30:23;;;;;;;26.95;7.35;;;7.50;99.90;;;;;;6136353;23;20075;-85
2021/12/29 02:32:49;;;;;;;21.80;8.25;;;7.50;99.90;;;;;;6160341;23;20372;-86
2021/12/29 02:35:16;;;;;;;26.80;8.40;;;7.50;99.90;;;;;;6158552;23;20009;-86
2021/12/29 02:37:43;;;;;;;21.75;8.00;;;7.50;99.90;;;;;;6160121;23;20093;-86
2021/12/29 02:40:11;;;;;;;23.95;8.52;;;7.50;99.90;;;;;;6134490;23;20095;-86
2021/12/29 02:42:41;;;;;;;25.15;8.50;;;7.50;99.90;;;;;;6136563;23;20092;-86
2021/12/29 02:45:15;;;;;;;27.88;8.40;;;7.50;99.90;;;;;;6135407;23;20021;-86
2021/12/29 02:47:42;;;;;;;27.48;8.45;;;7.50;99.90;;;;;;6161237;23;20024;-85
2021/12/29 02:50:09;;;;;;;22.83;8.90;;;7.50;99.90;;;;;;6136393;23;20043;-86
2021/12/29 02:52:35;;;;;;;24.17;8.48;;;7.50;99.90;;;;;;6137072;23;20021;-85
2021/12/29 02:55:01;;;;;;;27.30;8.57;;;7.40;99.90;;;;;;6155010;23;20392;-86
2021/12/29 02:57:27;;;;;;;27.83;8.93;;;7.40;99.90;;;;;;6131561;23;20017;-85
2021/12/29 02:59:53;;;;;;;24.30;9.02;;;7.40;99.90;;;;;;6130991;23;20175;-86
2021/12/29 03:02:19;;;;;;;22.88;9.10;;;7.40;99.90;;;;;;6156249;23;20017;-85
2021/12/29 03:04:45;;;;;;;20.25;8.13;;;7.40;99.90;;;;;;6155763;23;20009;-85
2021/12/29 03:07:11;;;;;;;25.92;7.95;;;7.40;99.90;;;;;;6130911;23;20013;-86
2021/12/29 03:09:37;;;;;;;22.13;8.20;;;7.40;99.90;;;;;;6129572;23;20010;-86
2021/12/29 03:12:03;;;;;;;21.80;8.77;;;7.40;99.90;;;;;;6154623;23;20005;-85
2021/12/29 03:14:29;;;;;;;22.65;8.63;;;7.40;99.90;;;;;;6130812;23;20025;-85
2021/12/29 03:16:55;;;;;;;22.30;8.25;;;7.40;99.90;;;;;;6154950;23;20448;-86
2021/12/29 03:19:39;;;;;;;21.02;7.55;;;7.50;99.90;;;;;;6154769;23;20056;-85
2021/12/29 03:22:08;;;;;;;19.02;7.18;;;7.50;99.90;;;;;;6154204;23;20076;-86
2021/12/29 03:24:38;;;;;;;17.00;6.43;;;7.50;99.90;;;;;;6128535;23;20366;-86
2021/12/29 03:27:04;;;;;;;22.45;7.22;;;7.50;99.90;;;;;;6154582;23;20013;-85
2021/12/29 03:29:30;;;;;;;19.38;7.25;;;7.50;99.90;;;;;;6129677;23;20045;-85
2021/12/29 03:31:59;;;;;;;20.40;8.20;;;7.60;99.90;;;;;;6130077;23;20009;-86
2021/12/29 03:34:31;;;;;;;21.05;7.63;;;7.50;99.90;;;;;;6154530;23;20348;-86
2021/12/29 03:36:57;;;;;;;16.20;7.15;;;7.60;99.90;;;;;;6129968;23;20119;-85
2021/12/29 03:39:24;;;;;;;20.13;7.28;;;7.60;99.90;;;;;;6154293;23;20064;-85
2021/12/29 03:41:50;;;;;;;17.67;7.97;;;7.60;99.90;;;;;;6130286;23;20424;-86
2021/12/29 03:55:54;;;;;;;19.77;8.50;;;7.70;99.90;;;;;;6140584;23;20052;-85
2021/12/29 03:58:22;;;;;;;29.77;9.70;;;7.60;99.90;;;;;;6102152;23;20491;-86
2021/12/29 04:00:50;;;;;;;27.15;10.57;;;7.60;99.90;;;;;;6133710;23;20039;-85
2021/12/29 04:03:16;;;;;;;29.80;11.00;;;7.60;99.90;;;;;;6157856;23;20443;-86
2021/12/29 04:05:42;;;;;;;32.22;10.25;;;7.60;99.90;;;;;;6158454;23;20024;-85
2021/12/29 04:08:09;;;;;;;34.80;10.35;;;7.60;99.90;;;;;;6160009;23;20028;-85
2021/12/29 04:10:36;;;;;;;29.23;10.10;;;7.60;99.90;;;;;;6157472;23;20028;-86
2021/12/29 04:13:04;;;;;;;29.27;10.27;;;7.60;99.90;;;;;;6134705;23;20087;-86
2021/12/29 04:15:31;;;;;;;28.98;10.05;;;7.60;99.90;;;;;;6159063;23;20811;-85
2021/12/29 04:17:58;;;;;;;29.63;9.65;;;7.60;99.90;;;;;;6156264;23;20068;-85
2021/12/29 04:23:16;;;;;;;33.03;10.05;;;7.60;99.90;;;;;;6158449;23;20479;-85
2021/12/29 04:25:46;;;;;;;32.38;9.52;;;7.60;99.90;;;;;;6155388;23;20071;-85
2021/12/29 04:28:20;;;;;;;29.55;8.95;;;7.60;99.90;;;;;;6157290;23;20009;-85
2021/12/29 04:31:07;;;;;;;35.10;9.80;;;7.60;99.90;;;;;;6131354;23;20436;-85
2021/12/29 04:33:34;;;;;;;29.90;9.07;;;7.60;99.90;;;;;;6131442;23;20440;-86
2021/12/29 04:36:04;;;;;;;31.05;9.00;;;7.60;99.90;;;;;;6131246;23;20025;-86
2021/12/29 04:38:30;;;;;;;31.60;8.88;;;7.60;99.90;;;;;;6131567;23;20052;-85
2021/12/29 04:40:59;;;;;;;34.78;8.85;;;7.60;99.90;;;;;;6155546;23;20013;-85
2021/12/29 04:47:08;;;;;;;30.90;7.93;;;7.60;99.90;;;;;;6184581;23;20047;-85
2021/12/29 05:08:37;;;;;;;32.15;7.38;;;7.60;99.90;;;;;;6066220;23;20644;-85
2021/12/29 05:11:07;;;;;;;32.05;8.23;;;7.60;99.90;;;;;;6067196;23;20014;-85
2021/12/29 05:14:10;;;;;;;31.52;8.05;;;7.60;99.90;;;;;;6091265;23;20061;-85
2021/12/29 05:16:39;;;;;;;30.38;8.20;;;7.60;99.90;;;;;;6033551;23;20646;-86
2021/12/29 05:33:55;;;;;;;26.80;6.88;;;7.50;99.90;;;;;;6043430;23;20046;-85
2021/12/29 05:37:20;;;;;;;;;;;;;;;;;;;;;
2021/12/29 05:52:55;;;;;;;36.55;8.00;;;7.40;99.90;;;;;;6212108;23;20032;-85
2021/12/29 05:55:22;;;;;;;36.85;7.88;;;7.40;99.90;;;;;;6186505;23;20040;-86
2021/12/29 05:57:47;;;;;;;27.75;6.80;;;7.40;99.90;;;;;;6162780;23;20019;-86
2021/12/29 06:00:16;;;;;;;30.38;7.90;;;7.40;99.90;;;;;;6187623;23;20012;-85
2021/12/29 06:02:43;;;;;;;27.73;7.15;;;7.40;99.90;;;;;;6163035;23;20016;-85
2021/12/29 06:05:09;;;;;;;32.80;7.97;;;7.40;99.90;;;;;;6186767;23;20414;-86
2021/12/29 06:07:36;;;;;;;31.23;6.72;;;7.40;99.90;;;;;;6188057;23;20009;-86
2021/12/29 06:10:03;;;;;;;38.75;7.03;;;7.40;99.90;;;;;;6186939;23;20016;-86
2021/12/29 06:12:29;;;;;;;27.00;6.57;;;7.30;99.90;;;;;;6186057;23;20021;-86
2021/12/29 06:14:55;;;;;;;31.08;7.05;;;7.40;99.90;;;;;;6162649;23;20074;-86
2021/12/29 06:17:21;;;;;;;26.17;7.15;;;7.30;99.90;;;;;;6187731;23;20180;-86
2021/12/29 06:19:47;;;;;;;29.73;7.03;;;7.30;99.90;;;;;;6186486;23;20013;-86
2021/12/29 06:22:15;;;;;;;29.60;7.20;;;7.30;99.90;;;;;;6161640;23;20291;-85
2021/12/29 06:24:43;;;;;;;28.05;7.13;;;7.30;99.90;;;;;;6161445;23;20047;-85
2021/12/29 06:27:10;;;;;;;28.08;6.53;;;7.30;99.90;;;;;;6186516;23;20017;-85
2021/12/29 06:29:36;;;;;;;28.80;7.35;;;7.30;99.90;;;;;;6163665;23;20379;-86
2021/12/29 06:32:03;;;;;;;39.03;7.28;;;7.30;99.90;;;;;;6163192;23;20123;-85
2021/12/29 06:34:29;;;;;;;37.08;9.95;;;7.40;99.90;;;;;;6186406;23;20458;-85
2021/12/29 06:36:57;;;;;;;28.40;7.00;;;7.30;99.90;;;;;;6163034;23;20091;-85
2021/12/29 06:39:23;;;;;;;40.83;7.60;;;7.40;99.90;;;;;;6160758;23;20019;-85
2021/12/29 06:41:49;;;;;;;50.85;8.00;;;7.40;99.90;;;;;;6162240;23;20091;-85
2021/12/29 06:44:18;;;;;;;40.00;7.82;;;7.40;99.90;;;;;;6162608;23;20027;-86
2021/12/29 06:46:44;;;;;;;34.33;7.10;;;7.40;99.90;;;;;;6162003;23;20446;-86
2021/12/29 06:49:09;;;;;;;39.42;7.05;;;7.40;99.90;;;;;;6187213;23;20064;-86
2021/12/29 06:51:35;;;;;;;30.60;6.47;;;7.40;99.90;;;;;;6186905;23;20020;-85
2021/12/29 06:54:01;;;;;;;31.17;6.90;;;7.40;99.90;;;;;;6185502;23;20020;-86
2021/12/29 06:56:27;;;;;;;29.92;7.07;;;7.40;99.90;;;;;;6162621;23;20019;-86
2021/12/29 06:58:53;;;;;;;35.33;7.35;;;7.40;99.90;;;;;;6162853;23;20038;-86
2021/12/29 07:01:18;;;;;;;36.63;6.93;;;7.40;99.90;;;;;;6187038;23;20574;-86
2021/12/29 07:03:44;;;;;;;29.08;6.50;;;7.40;99.90;;;;;;6163122;23;20463;-86
2021/12/29 07:06:10;;;;;;;25.17;5.72;;;7.40;99.90;;;;;;6188267;23;20012;-86
2021/12/29 07:08:37;;;;;;;27.13;5.95;;;7.40;99.90;;;;;;6189490;23;20126;-86
2021/12/29 07:11:03;;;;;;;27.60;6.50;;;7.40;99.90;;;;;;6189659;23;20094;-86
2021/12/29 07:13:29;;;;;;;22.42;5.93;;;7.40;99.90;;;;;;6187914;23;20020;-85
2021/12/29 07:15:54;;;;;;;23.02;5.68;;;7.40;99.90;;;;;;6188539;23;20332;-85
2021/12/29 07:18:20;;;;;;;19.60;4.82;;;7.40;99.90;;;;;;6187559;23;20039;-86
2021/12/29 07:20:45;;;;;;;21.17;5.60;;;7.40;99.90;;;;;;6164549;23;20016;-86
2021/12/29 07:23:12;;;;;;;31.67;6.07;;;7.40;99.90;;;;;;6189441;23;20027;-85
2021/12/29 07:25:37;;;;;;;23.67;5.30;;;7.50;99.90;;;;;;6162298;23;20020;-85
2021/12/29 07:28:03;;;;;;;25.27;5.13;;;7.50;99.90;;;;;;6190084;23;20016;-86
2021/12/29 07:30:29;;;;;;;29.58;6.40;;;7.50;99.90;;;;;;6188211;23;20016;-86
2021/12/29 07:32:54;;;;;;;27.42;5.38;;;7.50;99.90;;;;;;6164839;23;20481;-85
2021/12/29 07:35:21;;;;;;;39.05;7.00;;;7.50;99.90;;;;;;6162040;23;20086;-85
2021/12/29 07:37:46;;;;;;;32.55;6.68;;;7.50;99.90;;;;;;6187480;23;20356;-85
2021/12/29 07:40:12;;;;;;;44.15;8.02;;;7.50;99.90;;;;;;6160223;23;20023;-86
2021/12/29 07:42:40;;;;;;;42.92;6.28;;;7.50;99.90;;;;;;6214996;23;20031;-85
2021/12/29 07:45:08;;;;;;;53.45;8.65;;;7.50;99.90;;;;;;6136668;23;20068;-86
2021/12/29 07:47:41;;;;;;;44.83;7.57;;;7.50;99.90;;;;;;6186477;23;20093;-85
2021/12/29 07:50:07;;;;;;;64.82;8.98;;;7.50;99.90;;;;;;6160277;23;20067;-85
2021/12/29 07:52:33;;;;;;;32.80;6.28;;;7.40;99.90;;;;;;6183972;23;20028;-85
2021/12/29 07:54:58;;;;;;;58.50;9.05;;;7.50;99.90;;;;;;6184181;23;20466;-85
2021/12/29 07:57:24;;;;;;;51.60;7.93;;;7.40;99.90;;;;;;6160891;23;20347;-85
2021/12/29 07:59:50;;;;;;;52.08;8.90;;;7.40;99.90;;;;;;6184770;23;20013;-85
2021/12/29 08:13:18;;;;;;;55.85;9.05;;;7.50;99.90;;;;;;6212289;23;20023;-85
2021/12/29 08:15:45;;;;;;;59.92;9.25;;;7.50;99.90;;;;;;6186635;23;20009;-86
2021/12/29 08:18:10;;;;;;;70.45;11.50;;;7.50;99.90;;;;;;6135629;23;20012;-86
2021/12/29 08:20:36;;;;;;;81.05;11.55;;;7.50;99.90;;;;;;6185140;23;20515;-86
2021/12/29 08:23:04;;;;;;;58.95;9.93;;;7.50;99.90;;;;;;6186228;23;20354;-86
2021/12/29 08:25:30;;;;;;;57.30;10.18;;;7.60;99.90;;;;;;6158915;23;20583;-87
2021/12/29 08:27:56;;;;;;;39.53;7.78;;;7.50;99.90;;;;;;6186290;23;20528;-86
2021/12/29 08:30:22;;;;;;;42.17;8.27;;;7.50;99.90;;;;;;6185379;23;20023;-86
2021/12/29 08:37:31;;;;;;;40.13;7.68;;;7.60;99.90;;;;;;6110700;23;20016;-86
2021/12/29 08:39:56;;;;;;;36.40;6.90;;;7.60;99.90;;;;;;6093732;23;20049;-86
2021/12/29 08:42:22;;;;;;;25.50;7.03;;;7.60;99.90;;;;;;6119849;23;20009;-85
2021/12/29 08:44:48;;;;;;;31.98;7.60;;;7.60;99.90;;;;;;6159648;23;20016;-86
2021/12/29 08:47:17;;;;;;;19.30;5.35;;;7.60;99.90;;;;;;6156801;23;20085;-85
2021/12/29 08:49:42;;;;;;;25.30;7.50;;;7.60;99.90;;;;;;6185193;23;20008;-86
2021/12/29 08:52:08;;;;;;;32.10;7.22;;;7.60;99.90;;;;;;6160404;23;20063;-85
2021/12/29 08:54:34;;;;;;;25.98;7.07;;;7.60;99.90;;;;;;6157338;23;20291;-85
2021/12/29 08:57:05;;;;;;;32.40;9.02;;;7.60;99.90;;;;;;6184322;23;20362;-85
2021/12/29 08:59:32;;;;;;;32.20;7.50;;;7.60;99.90;;;;;;6160547;23;20406;-85
2021/12/29 09:01:57;;;;;;;23.65;7.53;;;7.50;99.90;;;;;;6160181;23;20023;-85
2021/12/29 09:04:23;;;;;;;25.08;6.55;;;7.50;99.90;;;;;;6160634;23;20374;-85
2021/12/29 09:06:55;;;;;;;20.05;6.28;;;7.50;99.90;;;;;;6184544;23;20098;-86
2021/12/29 09:09:21;;;;;;;25.38;6.80;;;7.50;99.90;;;;;;6158162;23;20021;-86
2021/12/29 09:11:47;;;;;;;21.80;6.25;;;7.60;99.90;;;;;;6187151;23;20476;-85
2021/12/29 09:14:14;;;;;;;18.80;5.90;;;7.60;99.90;;;;;;6186654;23;20347;-85
2021/12/29 09:16:41;;;;;;;22.52;6.15;;;7.60;99.90;;;;;;6161706;23;20016;-85
2021/12/29 09:19:11;;;;;;;21.13;6.07;;;7.60;99.90;;;;;;6161875;23;20009;-85
2021/12/29 09:21:39;;;;;;;25.40;6.07;;;7.60;99.90;;;;;;6162529;23;20508;-85
2021/12/29 09:24:06;;;;;;;19.48;5.30;;;7.60;99.90;;;;;;6160276;23;20020;-85
2021/12/29 09:26:32;;;;;;;19.27;5.35;;;7.60;99.90;;;;;;6185959;23;20056;-85
2021/12/29 09:28:57;;;;;;;16.17;5.13;;;7.60;99.90;;;;;;6159108;23;20021;-85
2021/12/29 09:31:24;;;;;;;18.75;5.05;;;7.60;99.90;;;;;;6159489;23;20021;-85
2021/12/29 09:33:51;;;;;;;14.18;4.47;;;7.60;99.90;;;;;;6159976;23;20418;-85
2021/12/29 09:36:17;;;;;;;12.85;4.00;;;7.60;99.90;;;;;;6185481;23;20012;-87
2021/12/29 09:38:44;;;;;;;14.20;3.85;;;7.70;99.90;;;;;;6158674;23;20087;-85
2021/12/29 09:41:14;;;;;;;13.65;3.72;;;7.70;99.90;;;;;;6178159;23;20024;-85
2021/12/29 09:43:40;;;;;;;15.77;4.05;;;7.70;99.90;;;;;;6183708;23;20024;-85
2021/12/29 09:46:06;;;;;;;16.83;4.80;;;7.70;99.90;;;;;;6180073;23;20019;-86
2021/12/29 09:48:33;;;;;;;13.15;3.83;;;7.70;99.90;;;;;;6183476;23;20020;-86
2021/12/29 09:51:02;;;;;;;19.48;3.88;;;7.70;99.90;;;;;;6184277;23;20048;-86
2021/12/29 09:53:27;;;;;;;17.95;4.07;;;7.70;99.90;;;;;;6160251;23;20362;-85
2021/12/29 09:55:53;;;;;;;21.88;5.30;;;7.70;99.90;;;;;;6158671;23;20013;-86
2021/12/29 09:58:19;;;;;;;30.25;10.25;;;7.80;99.90;;;;;;6185391;23;20063;-86
2021/12/29 10:00:54;;;;;;;30.48;8.98;;;7.80;99.90;;;;;;6182944;23;20044;-86
2021/12/29 10:03:22;;;;;;;21.20;8.02;;;7.80;99.90;;;;;;6159802;23;20350;-85
2021/12/29 10:05:51;;;;;;;21.30;7.18;;;7.80;99.90;;;;;;6184725;23;20446;-85
2021/12/29 10:08:43;;;;;;;18.75;5.97;;;7.80;99.90;;;;;;6161333;23;20089;-85
2021/12/29 10:11:18;;;;;;;19.67;4.40;;;7.80;99.90;;;;;;6181732;23;20024;-85
2021/12/29 10:13:47;;;;;;;15.20;3.92;;;7.80;99.90;;;;;;6184809;23;20025;-85
2021/12/29 10:16:14;;;;;;;17.92;6.13;;;7.80;99.90;;;;;;6159653;23;20462;-85
2021/12/29 10:18:43;;;;;;;23.48;4.75;;;7.80;99.90;;;;;;6186823;23;20076;-85
2021/12/29 10:21:28;;;;;;;18.60;4.40;;;7.80;99.90;;;;;;6162205;23;20455;-85
2021/12/29 10:23:56;;;;;;;28.63;4.80;;;7.80;99.90;;;;;;6161850;23;20013;-84
2021/12/29 10:26:25;;;;;;;13.30;3.20;;;7.80;99.90;;;;;;6185634;23;20335;-85
2021/12/29 10:29:03;;;;;;;27.50;4.00;;;7.90;99.90;;;;;;6163718;23;20027;-85
2021/12/29 10:31:41;;;;;;;17.30;3.15;;;7.90;99.90;;;;;;6187489;23;20343;-85
2021/12/29 10:34:18;;;;;;;19.63;3.97;;;8.00;99.90;;;;;;6161714;23;20067;-85
2021/12/29 10:36:48;;;;;;;20.40;3.70;;;8.00;99.90;;;;;;6161278;23;20019;-85
2021/12/29 10:39:19;;;;;;;18.75;3.63;;;8.10;99.90;;;;;;6185766;23;20689;-85
2021/12/29 10:41:50;;;;;;;19.30;3.70;;;8.10;99.90;;;;;;6187354;23;20080;-85
2021/12/29 10:44:23;;;;;;;21.52;4.30;;;8.20;99.90;;;;;;6187371;23;20034;-85
2021/12/29 10:46:48;;;;;;;19.00;4.38;;;8.20;99.90;;;;;;6188457;23;20013;-85
2021/12/29 10:49:14;;;;;;;20.42;4.53;;;8.30;99.90;;;;;;6189909;23;20155;-86
2021/12/29 10:51:45;;;;;;;17.40;4.07;;;8.30;99.90;;;;;;6189316;23;20343;-85
2021/12/29 10:54:19;;;;;;;15.73;3.90;;;8.30;99.90;;;;;;6159514;23;20021;-85
2021/12/29 10:57:06;;;;;;;23.83;4.82;;;8.40;99.90;;;;;;6161263;23;20107;-85
2021/12/29 10:59:41;;;;;;;25.17;4.28;;;8.40;99.90;;;;;;6170332;23;20012;-86
2021/12/29 11:02:08;;;;;;;18.10;4.28;;;8.40;99.90;;;;;;6167317;23;20431;-86
2021/12/29 11:04:34;;;;;;;19.27;4.82;;;8.40;99.90;;;;;;6191072;23;20030;-86
2021/12/29 11:07:01;;;;;;;21.55;4.22;;;8.40;99.90;;;;;;6162564;23;20017;-86
2021/12/29 11:09:32;;;;;;;22.42;4.13;;;8.40;99.90;;;;;;6161912;23;20454;-86
2021/12/29 11:12:00;;;;;;;22.85;4.80;;;8.40;99.90;;;;;;6189087;23;20005;-86
2021/12/29 11:14:31;;;;;;;19.65;4.18;;;8.40;99.90;;;;;;6188452;23;20143;-85
2021/12/29 11:17:05;;;;;;;23.00;4.72;;;8.30;99.90;;;;;;6189930;23;20016;-85
2021/12/29 11:19:31;;;;;;;18.58;4.47;;;8.40;99.90;;;;;;6188604;23;20013;-86
2021/12/29 11:22:15;;;;;;;21.33;4.35;;;8.40;99.90;;;;;;6187507;23;20092;-85
2021/12/29 11:24:52;;;;;;;17.20;4.72;;;8.40;99.90;;;;;;6183775;23;20110;-85
2021/12/29 11:27:21;;;;;;;17.42;4.45;;;8.40;99.90;;;;;;6188011;23;20104;-85
2021/12/29 11:29:58;;;;;;;20.77;5.15;;;8.30;99.90;;;;;;6161594;23;20411;-85
2021/12/29 11:32:31;;;;;;;19.13;4.82;;;8.30;99.90;;;;;;6163010;23;20362;-86
2021/12/29 11:35:03;;;;;;;20.25;3.97;;;8.40;99.90;;;;;;6161903;23;20355;-86
2021/12/29 11:37:30;;;;;;;;;;;8.40;99.90;;;;;;6187426;23;20064;-86
2021/12/29 11:39:56;;;;;;;26.60;4.70;;;8.30;99.90;;;;;;6160244;23;20024;-85
2021/12/29 11:42:22;;;;;;;31.35;8.77;;;8.30;99.90;;;;;;6190486;23;20012;-85
2021/12/29 11:44:48;;;;;;;20.83;6.05;;;8.30;99.90;;;;;;6212918;23;20016;-86
2021/12/29 11:47:14;;;;;;;29.65;11.60;;;8.30;99.90;;;;;;6164837;23;20039;-86
2021/12/29 11:49:43;;;;;;;21.35;7.63;;;8.30;99.90;;;;;;6187618;23;20489;-86
2021/12/29 11:52:08;;;;;;;21.95;6.28;;;8.40;99.90;;;;;;6186748;23;20027;-86
2021/12/29 11:54:38;;;;;;;17.00;5.57;;;8.40;99.90;;;;;;6187312;23;20072;-86
2021/12/29 11:57:16;;;;;;;25.50;6.82;;;8.40;99.90;;;;;;6188856;23;20038;-86
2021/12/29 11:59:42;;;;;;;23.40;6.30;;;8.40;99.90;;;;;;6159218;23;20517;-86
2021/12/29 12:02:07;;;;;;;20.88;6.80;;;8.40;99.90;;;;;;6185246;23;20024;-86
2021/12/29 12:04:33;;;;;;;20.77;6.45;;;8.40;99.90;;;;;;6185899;23;20020;-86
2021/12/29 12:10:44;;;;;;;22.55;7.65;;;8.40;99.90;;;;;;6153066;23;20559;-86
2021/12/29 12:13:35;;;;;;;24.98;7.53;;;8.40;99.90;;;;;;6177990;23;20020;-86
2021/12/29 12:16:13;;;;;;;14.52;5.95;;;8.40;99.90;;;;;;6186919;23;20087;-86
2021/12/29 12:18:51;;;;;;;16.42;6.25;;;8.40;99.90;;;;;;6162159;23;20058;-86
2021/12/29 12:21:34;;;;;;;23.52;8.13;;;8.40;99.90;;;;;;6186274;23;20008;-86
2021/12/29 12:24:12;;;;;;;20.42;7.07;;;8.40;99.90;;;;;;6183445;23;20062;-86
2021/12/29 12:26:56;;;;;;;21.67;6.78;;;8.40;99.90;;;;;;6161948;23;20020;-86
2021/12/29 12:29:24;;;;;;;15.00;6.40;;;8.40;99.90;;;;;;6187703;23;20032;-86
2021/12/29 12:32:15;;;;;;;19.88;7.38;;;8.40;99.90;;;;;;6186335;23;20342;-86
2021/12/29 12:34:50;;;;;;;26.55;7.97;;;8.40;99.90;;;;;;6215888;23;20032;-86
2021/12/29 12:37:22;;;;;;;15.70;6.40;;;8.40;99.90;;;;;;6166169;23;20320;-86
2021/12/29 12:40:03;;;;;;;20.02;6.22;;;8.40;99.90;;;;;;6189953;23;20092;-86
2021/12/29 12:42:30;;;;;;;19.10;7.13;;;8.40;99.90;;;;;;6188812;23;20415;-86
2021/12/29 12:44:58;;;;;;;19.23;6.82;;;8.40;99.90;;;;;;6190148;23;20012;-86
2021/12/29 12:47:31;;;;;;;13.25;5.47;;;8.40;99.90;;;;;;6190763;23;20427;-86
2021/12/29 12:49:59;;;;;;;17.20;5.63;;;8.40;99.90;;;;;;6192054;23;20019;-86
2021/12/29 12:52:26;;;;;;;20.35;6.20;;;8.40;99.90;;;;;;6165268;23;20090;-86
2021/12/29 12:55:05;;;;;;;15.57;6.60;;;8.40;99.90;;;;;;6188391;23;20351;-86
2021/12/29 12:57:44;;;;;;;16.73;6.88;;;8.40;99.90;;;;;;6191564;23;20008;-86
2021/12/29 13:00:27;;;;;;;18.52;6.40;;;8.40;99.90;;;;;;6193267;23;19993;-86
2021/12/29 13:02:59;;;;;;;16.08;6.90;;;8.40;99.90;;;;;;6190717;23;20012;-86
2021/12/29 13:05:39;;;;;;;22.42;7.80;;;8.40;99.90;;;;;;6162240;23;20135;-86
2021/12/29 13:08:26;;;;;;;19.48;6.85;;;8.40;99.90;;;;;;6169374;23;20001;-86
2021/12/29 13:10:59;;;;;;;21.35;7.90;;;8.40;99.90;;;;;;6161045;23;20020;-86
2021/12/29 13:13:29;;;;;;;22.98;7.78;;;8.40;99.90;;;;;;6183244;23;20091;-86
2021/12/29 13:15:56;;;;;;;15.30;7.78;;;8.40;99.90;;;;;;6184715;23;20024;-86
2021/12/29 13:18:22;;;;;;;21.83;8.25;;;8.40;99.90;;;;;;6183659;23;20013;-86
2021/12/29 13:20:49;;;;;;;18.23;7.93;;;8.40;99.90;;;;;;6158863;23;20030;-86
2021/12/29 13:23:21;;;;;;;18.23;8.13;;;8.40;99.90;;;;;;6184746;23;20013;-86
2021/12/29 13:25:56;;;;;;;17.15;9.05;;;8.40;99.90;;;;;;6184411;23;20055;-86
2021/12/29 13:28:29;;;;;;;17.25;8.70;;;8.40;99.90;;;;;;6180359;23;20012;-86
2021/12/29 13:31:16;;;;;;;18.73;9.57;;;8.40;99.90;;;;;;6158172;23;20078;-86
2021/12/29 13:33:45;;;;;;;19.30;8.30;;;8.40;99.90;;;;;;6156696;23;20008;-86
2021/12/29 13:36:13;;;;;;;15.43;9.10;;;8.40;99.90;;;;;;6182022;23;20031;-86
2021/12/29 13:38:40;;;;;;;18.35;8.27;;;8.40;99.90;;;;;;6180572;23;20071;-86
2021/12/29 13:41:09;;;;;;;19.15;8.88;;;8.40;99.90;;;;;;6157407;23;20012;-86
2021/12/29 13:43:58;;;;;;;18.05;8.70;;;8.40;99.90;;;;;;6158510;23;20013;-86
2021/12/29 13:55:45;;;;;;;18.55;8.73;;;8.40;99.90;;;;;;6002559;23;20086;-86
2021/12/29 13:58:25;;;;;;;22.38;9.55;;;8.40;99.90;;;;;;5979807;23;20034;-85
2021/12/29 14:03:51;;;;;;;15.70;8.82;;;8.40;99.90;;;;;;6053663;23;20027;-85
2021/12/29 14:06:50;;;;;;;26.23;9.40;;;8.40;99.90;;;;;;6162108;23;20016;-84
2021/12/29 14:09:43;;;;;;;19.52;9.18;;;8.40;99.90;;;;;;6183231;23;20016;-85
2021/12/29 14:12:45;;;;;;;17.05;9.05;;;8.40;99.90;;;;;;6160474;23;20044;-84
2021/12/29 14:15:33;;;;;;;19.13;9.50;;;8.30;99.90;;;;;;6186177;23;20059;-84
2021/12/29 14:19:03;;;;;;;13.63;8.23;;;8.40;99.90;;;;;;6187745;23;20043;-84
2021/12/29 14:25:20;;;;;;;16.88;9.52;;;8.40;99.90;;;;;;6154764;23;20090;-87
2021/12/29 14:31:37;;;;;;;17.58;9.35;;;8.30;99.90;;;;;;6187502;23;20344;-85
2021/12/29 14:34:52;;;;;;;13.90;8.60;;;8.30;99.90;;;;;;6191118;23;20016;-85
2021/12/29 14:37:43;;;;;;;19.08;10.45;;;8.20;99.90;;;;;;6186449;23;20016;-85
2021/12/29 14:41:13;;;;;;;16.60;9.57;;;8.30;99.90;;;;;;6198911;23;20336;-84
2021/12/29 15:03:51;;;;;;;19.40;10.07;;;8.20;99.90;;;;;;6027219;23;20046;-85
2021/12/29 15:06:40;;;;;;;17.35;9.05;;;8.20;99.90;;;;;;5980292;24;20052;-84
2021/12/29 15:09:10;;;;;;;17.52;9.88;;;8.20;99.90;;;;;;5956647;24;20065;-84
2021/12/29 15:12:42;;;;;;;;;;;;;;;;;;;;;
2021/12/29 15:15:29;;;;;;;21.52;9.88;;;8.20;99.90;;;;;;6012600;23;20015;-85
2021/12/29 15:21:30;;;;;;;19.70;10.15;;;8.20;99.90;;;;;;5929098;24;20071;-85
2021/12/29 15:23:56;;;;;;;16.40;9.30;;;8.20;99.90;;;;;;5954148;23;20054;-85